»·PEaware :: AAL1101 KLAS-KLAX

AAL1101 :: KLAS-KLAX

FLIGHT INFORMATION

Flight Status: Arrived
Operator:
American Airlines
More flights by this operator :: More flights under this callsign
Pilot: Alfredo R. (12181)
Aircraft: BOEING 737-800
(B738)
More flights by this aircraft type
Origin: KLAS McCarran Intl
United States
Destination: KLAX Los Angeles Intl
United States
More flights between these airports :: More routes between these airports
Route: BOACH8 RIKII SHTNR ANJLL2
File this flight plan on PilotEdge
Remarks:
Altitude:
(Current/Filed)
28,000ft
Speed:
(Current/Filed)
450kts
Departed: 20-Nov-17 05:26 PM
Arrived: 20-Nov-17 06:12 PM
Distance/Time
Traveled:
205nm/0:45
Distance/Time
To Go:
Arrived

Flight Plot

Page will automatically refresh every two minutes.

Flight plan parsing failed; only flown route is shown


Map Options




Map Legend


Flown Route
Filed Route
Departure Airport
Arrival Airport
Navaid (VOR, NDB)
Fix

Horizontal Profiles

Position Reports

Time Latitude Longitude Heading Altitude Ground
Speed
20-Nov-17 16:59 36.080589 -115.140603 134 2148ft 0kts
20-Nov-17 17:00 36.080589 -115.140603 134 2148ft 0kts
20-Nov-17 17:01 36.080589 -115.140603 134 2148ft 0kts
20-Nov-17 17:02 36.080589 -115.140603 134 2148ft 0kts
20-Nov-17 17:03 36.080589 -115.140603 134 2148ft 0kts
20-Nov-17 17:04 36.080589 -115.140603 134 2148ft 0kts
20-Nov-17 17:05 36.080589 -115.140603 134 2148ft 0kts
20-Nov-17 17:06 36.080589 -115.140603 134 2148ft 0kts
20-Nov-17 17:07 36.080589 -115.140603 134 2148ft 0kts
20-Nov-17 17:08 36.080627 -115.140649 134 2148ft 0kts
20-Nov-17 17:09 36.080852 -115.140930 134 2148ft 1kts
20-Nov-17 17:10 36.081219 -115.141189 200 2148ft 0kts
20-Nov-17 17:11 36.081252 -115.141169 219 2148ft 0kts
20-Nov-17 17:12 36.081252 -115.141169 219 2148ft 0kts
20-Nov-17 17:13 36.081252 -115.141169 219 2148ft 0kts
20-Nov-17 17:14 36.081252 -115.141169 219 2148ft 0kts
20-Nov-17 17:15 36.080718 -115.141580 190 2149ft 4kts
20-Nov-17 17:16 36.079945 -115.141622 179 2149ft 0kts
20-Nov-17 17:17 36.079945 -115.141622 179 2149ft 0kts
20-Nov-17 17:18 36.079945 -115.141622 179 2149ft 0kts
20-Nov-17 17:19 36.079945 -115.141622 179 2149ft 0kts
20-Nov-17 17:20 36.079835 -115.141622 179 2149ft 2kts
20-Nov-17 17:21 36.078441 -115.141558 147 2149ft 6kts
20-Nov-17 17:22 36.078249 -115.138869 89 2149ft 10kts
20-Nov-17 17:23 36.078250 -115.134945 89 2148ft 12kts
20-Nov-17 17:24 36.078256 -115.130526 90 2149ft 13kts
20-Nov-17 17:25 36.078261 -115.125655 89 2149ft 14kts
20-Nov-17 17:26 36.077734 -115.121939 129 2149ft 7kts
20-Nov-17 17:27 36.077415 -115.121482 140 2148ft 0kts
20-Nov-17 17:28 36.077367 -115.121437 145 2148ft 1kts
20-Nov-17 17:29 36.076406 -115.121697 256 2148ft 5kts
20-Nov-17 17:30 36.076397 -115.125285 270 2148ft 18kts
20-Nov-17 17:31 36.076405 -115.151842 270 2149ft 166kts
20-Nov-17 17:32 36.077477 -115.213939 269 3628ft 206kts
20-Nov-17 17:33 36.040740 -115.270009 201 5777ft 250kts
20-Nov-17 17:34 35.968915 -115.301104 190 7066ft 295kts
20-Nov-17 17:35 35.886653 -115.311646 186 9968ft 304kts
20-Nov-17 17:36 35.796827 -115.308262 175 11990ft 342kts
20-Nov-17 17:37 35.700861 -115.297248 177 14522ft 355kts
20-Nov-17 17:38 35.601782 -115.297657 186 17173ft 368kts
20-Nov-17 17:39 35.500233 -115.309203 207 19520ft 369kts
20-Nov-17 17:40 35.413256 -115.368648 217 22048ft 372kts
20-Nov-17 17:41 35.326370 -115.431627 217 24266ft 382kts
20-Nov-17 17:42 35.235230 -115.497702 218 26307ft 392kts
20-Nov-17 17:43 35.142188 -115.565175 218 28087ft 397kts
20-Nov-17 17:44 35.060916 -115.659028 232 28100ft 422kts
20-Nov-17 17:45 34.977740 -115.764260 232 28163ft 440kts
20-Nov-17 17:46 34.893369 -115.871179 232 28179ft 439kts
20-Nov-17 17:47 34.809621 -115.977297 232 28173ft 438kts
20-Nov-17 17:48 34.725897 -116.083685 232 28171ft 438kts
20-Nov-17 17:49 34.643373 -116.188466 232 28168ft 436kts
20-Nov-17 17:50 34.561537 -116.292728 232 28147ft 432kts
20-Nov-17 17:51 34.482678 -116.393134 232 27022ft 419kts
20-Nov-17 17:52 34.410491 -116.493300 246 25784ft 396kts
20-Nov-17 17:53 34.365388 -116.601898 248 24350ft 364kts
20-Nov-17 17:54 34.323450 -116.704385 248 22953ft 363kts
20-Nov-17 17:55 34.284116 -116.801823 248 21620ft 355kts
20-Nov-17 17:56 34.246464 -116.895182 249 20359ft 350kts
20-Nov-17 17:57 34.210321 -116.986707 254 19073ft 342kts
20-Nov-17 17:58 34.185074 -117.079242 257 17859ft 334kts
20-Nov-17 17:59 34.159525 -117.173448 257 16803ft 331kts
20-Nov-17 18:00 34.133785 -117.266785 257 15709ft 325kts
20-Nov-17 18:01 34.108672 -117.357926 258 14460ft 302kts
20-Nov-17 18:02 34.085927 -117.447639 259 13285ft 300kts
20-Nov-17 18:03 34.059504 -117.536893 253 12153ft 303kts
20-Nov-17 18:04 34.027646 -117.625029 253 11009ft 303kts
20-Nov-17 18:05 34.004058 -117.711548 268 9871ft 278kts
20-Nov-17 18:06 33.996440 -117.789470 269 8782ft 255kts
20-Nov-17 18:07 33.989349 -117.862360 269 7916ft 237kts
20-Nov-17 18:08 33.982368 -117.933730 269 7083ft 229kts
20-Nov-17 18:09 33.975568 -118.002292 269 6122ft 214kts
20-Nov-17 18:10 33.969322 -118.067351 269 5409ft 196kts
20-Nov-17 18:11 33.963413 -118.127601 269 4558ft 184kts
20-Nov-17 18:12 33.957521 -118.186185 269 3922ft 172kts
20-Nov-17 18:13 33.951765 -118.240269 265 2820ft 176kts
20-Nov-17 18:14 33.946300 -118.293624 264 2506ft 167kts
20-Nov-17 18:15 33.941030 -118.348906 264 958ft 164kts
20-Nov-17 18:16 33.936121 -118.394867 262 133ft 73kts
20-Nov-17 18:17 33.936184 -118.403571 282 132ft 10kts
20-Nov-17 18:18 33.936104 -118.405784 263 133ft 8kts
20-Nov-17 18:19 33.936920 -118.408989 353 132ft 11kts
20-Nov-17 18:20 33.937482 -118.409064 353 132ft 0kts
20-Nov-17 18:21 33.938675 -118.408805 74 133ft 6kts
20-Nov-17 18:22 33.940273 -118.408080 351 132ft 8kts
20-Nov-17 18:23 33.941140 -118.407462 83 133ft 0kts
20-Nov-17 18:24 33.941140 -118.407462 83 133ft 0kts
20-Nov-17 18:25 33.941140 -118.407462 83 133ft 0kts

Navigation Log

Ident Type
Flight plan parsing failed, navigation log unavailable